<?xml version="1.0" encoding="UTF-8" standalone="no" ?>
<gpx xmlns="http://www.topografix.com/GPX/1/1" xmlns:xsi="http://www.w3.org/2001/XMLSchema-instance" xsi:schemaLocation="http://www.topografix.com/GPX/1/1 http://www.topografix.com/GPX/1/1/gpx.xsd" version="1.1" creator="VisuGPX - https://www.visugpx.com">
  <metadata>
    <name>Edirne-Sarajevo</name>
  </metadata>
  <trk>
    <name><![CDATA[Tour d'Europe: étape 650]]></name>
    <extensions>
      <line xmlns="http://www.topografix.com/GPX/gpx_style/0/2">
        <color>008888</color>
        <width>4</width>
      </line>
    </extensions>
    <trkseg>
      <trkpt lat="42.27847" lon="22.68861">
        <ele>565.279055</ele>
        <time>2022-04-09T07:23:21.696Z</time>
      </trkpt>
      <trkpt lat="42.2792" lon="22.68934">
        <ele>569.904549</ele>
        <time>2022-04-09T07:43:54.171Z</time>
      </trkpt>
      <trkpt lat="42.28126" lon="22.68827">
        <ele>580.665991</ele>
        <time>2022-04-09T07:45:08.203Z</time>
      </trkpt>
      <trkpt lat="42.283" lon="22.687">
        <ele>581.688943</ele>
        <time>2022-04-09T07:46:12.184Z</time>
      </trkpt>
      <trkpt lat="42.28346" lon="22.6849">
        <ele>576.744081</ele>
        <time>2022-04-09T07:47:17.192Z</time>
      </trkpt>
      <trkpt lat="42.28268" lon="22.6823">
        <ele>585.600798</ele>
        <time>2022-04-09T07:48:20.167Z</time>
      </trkpt>
      <trkpt lat="42.28184" lon="22.67966">
        <ele>583.189591</ele>
        <time>2022-04-09T07:49:29.200Z</time>
      </trkpt>
      <trkpt lat="42.281" lon="22.67693">
        <ele>587.502736</ele>
        <time>2022-04-09T07:50:35.194Z</time>
      </trkpt>
      <trkpt lat="42.2802" lon="22.6744">
        <ele>591.989578</ele>
        <time>2022-04-09T07:51:39.182Z</time>
      </trkpt>
      <trkpt lat="42.28058" lon="22.67276">
        <ele>582.377195</ele>
        <time>2022-04-09T07:52:37.176Z</time>
      </trkpt>
      <trkpt lat="42.28164" lon="22.67087">
        <ele>592.61045</ele>
        <time>2022-04-09T07:53:47.187Z</time>
      </trkpt>
      <trkpt lat="42.28192" lon="22.66873">
        <ele>598.159162</ele>
        <time>2022-04-09T07:55:12.186Z</time>
      </trkpt>
      <trkpt lat="42.2814" lon="22.6659">
        <ele>601.869926</ele>
        <time>2022-04-09T07:56:31.202Z</time>
      </trkpt>
      <trkpt lat="42.28097" lon="22.66305">
        <ele>609.945651</ele>
        <time>2022-04-09T07:57:55.220Z</time>
      </trkpt>
      <trkpt lat="42.28063" lon="22.6604">
        <ele>614.987589</ele>
        <time>2022-04-09T07:59:18.191Z</time>
      </trkpt>
      <trkpt lat="42.2803" lon="22.65762">
        <ele>619.049486</ele>
        <time>2022-04-09T08:00:51.192Z</time>
      </trkpt>
      <trkpt lat="42.27988" lon="22.65496">
        <ele>625.796854</ele>
        <time>2022-04-09T08:02:20.177Z</time>
      </trkpt>
      <trkpt lat="42.27929" lon="22.65245">
        <ele>633.038782</ele>
        <time>2022-04-09T08:03:45.199Z</time>
      </trkpt>
      <trkpt lat="42.27907" lon="22.64966">
        <ele>642.121549</ele>
        <time>2022-04-09T08:05:14.202Z</time>
      </trkpt>
      <trkpt lat="42.27884" lon="22.64705">
        <ele>647.065753</ele>
        <time>2022-04-09T08:07:06.159Z</time>
      </trkpt>
      <trkpt lat="42.2772" lon="22.6453">
        <ele>648.720014</ele>
        <time>2022-04-09T08:08:29.160Z</time>
      </trkpt>
      <trkpt lat="42.27623" lon="22.64307">
        <ele>653.901383</ele>
        <time>2022-04-09T08:10:14.173Z</time>
      </trkpt>
      <trkpt lat="42.27424" lon="22.64272">
        <ele>665.341668</ele>
        <time>2022-04-09T08:12:33.160Z</time>
      </trkpt>
      <trkpt lat="42.2723" lon="22.64256">
        <ele>676.2944</ele>
        <time>2022-04-09T08:15:01.200Z</time>
      </trkpt>
      <trkpt lat="42.27099" lon="22.64103">
        <ele>687.562301</ele>
        <time>2022-04-09T08:16:51.174Z</time>
      </trkpt>
      <trkpt lat="42.27061" lon="22.63834">
        <ele>694.842249</ele>
        <time>2022-04-09T08:18:12.208Z</time>
      </trkpt>
      <trkpt lat="42.27017" lon="22.63547">
        <ele>700.35682</ele>
        <time>2022-04-09T08:19:36.176Z</time>
      </trkpt>
      <trkpt lat="42.26978" lon="22.63245">
        <ele>704.640857</ele>
        <time>2022-04-09T08:21:03.198Z</time>
      </trkpt>
      <trkpt lat="42.26943" lon="22.62981">
        <ele>714.61129</ele>
        <time>2022-04-09T08:22:57.158Z</time>
      </trkpt>
      <trkpt lat="42.26902" lon="22.62713">
        <ele>726.775736</ele>
        <time>2022-04-09T08:25:35.181Z</time>
      </trkpt>
      <trkpt lat="42.26864" lon="22.62458">
        <ele>739.470698</ele>
        <time>2022-04-09T08:28:10.172Z</time>
      </trkpt>
      <trkpt lat="42.26828" lon="22.62191">
        <ele>756.15601</ele>
        <time>2022-04-09T08:30:53.182Z</time>
      </trkpt>
      <trkpt lat="42.26792" lon="22.61937">
        <ele>767.863146</ele>
        <time>2022-04-09T08:33:27.212Z</time>
      </trkpt>
      <trkpt lat="42.26752" lon="22.61675">
        <ele>781.782434</ele>
        <time>2022-04-09T08:36:13.185Z</time>
      </trkpt>
      <trkpt lat="42.26716" lon="22.61427">
        <ele>794.202058</ele>
        <time>2022-04-09T08:38:49.183Z</time>
      </trkpt>
      <trkpt lat="42.26681" lon="22.61158">
        <ele>807.082544</ele>
        <time>2022-04-09T08:41:31.171Z</time>
      </trkpt>
      <trkpt lat="42.26644" lon="22.60894">
        <ele>821.456008</ele>
        <time>2022-04-09T08:44:21.200Z</time>
      </trkpt>
      <trkpt lat="42.26606" lon="22.60628">
        <ele>834.645664</ele>
        <time>2022-04-09T08:52:32.204Z</time>
      </trkpt>
      <trkpt lat="42.26569" lon="22.6036">
        <ele>849.904982</ele>
        <time>2022-04-09T08:55:13.180Z</time>
      </trkpt>
      <trkpt lat="42.26532" lon="22.60101">
        <ele>860.771769</ele>
        <time>2022-04-09T08:57:43.195Z</time>
      </trkpt>
      <trkpt lat="42.26493" lon="22.59834">
        <ele>872.739387</ele>
        <time>2022-04-09T09:00:24.245Z</time>
      </trkpt>
      <trkpt lat="42.26456" lon="22.59583">
        <ele>885.788977</ele>
        <time>2022-04-09T09:03:00.184Z</time>
      </trkpt>
      <trkpt lat="42.26414" lon="22.59318">
        <ele>894.443401</ele>
        <time>2022-04-09T09:05:41.181Z</time>
      </trkpt>
      <trkpt lat="42.26382" lon="22.5906">
        <ele>908.403297</ele>
        <time>2022-04-09T09:08:18.215Z</time>
      </trkpt>
      <trkpt lat="42.26343" lon="22.58797">
        <ele>925.619839</ele>
        <time>2022-04-09T09:11:00.188Z</time>
      </trkpt>
      <trkpt lat="42.26309" lon="22.5853">
        <ele>936.60458</ele>
        <time>2022-04-09T09:13:27.193Z</time>
      </trkpt>
      <trkpt lat="42.26444" lon="22.5838">
        <ele>947.517993</ele>
        <time>2022-04-09T09:15:46.185Z</time>
      </trkpt>
      <trkpt lat="42.2663" lon="22.58266">
        <ele>958.220362</ele>
        <time>2022-04-09T09:19:16.169Z</time>
      </trkpt>
      <trkpt lat="42.26682" lon="22.58028">
        <ele>968.032171</ele>
        <time>2022-04-09T09:21:44.183Z</time>
      </trkpt>
      <trkpt lat="42.2658" lon="22.57808">
        <ele>979.426947</ele>
        <time>2022-04-09T09:24:23.187Z</time>
      </trkpt>
      <trkpt lat="42.26407" lon="22.57696">
        <ele>992.384894</ele>
        <time>2022-04-09T09:26:54.179Z</time>
      </trkpt>
      <trkpt lat="42.2622" lon="22.5759">
        <ele>1004.517483</ele>
        <time>2022-04-09T09:29:40.186Z</time>
      </trkpt>
      <trkpt lat="42.26075" lon="22.57423">
        <ele>1017.788291</ele>
        <time>2022-04-09T09:32:15.197Z</time>
      </trkpt>
      <trkpt lat="42.26004" lon="22.5717">
        <ele>1027.173437</ele>
        <time>2022-04-09T09:34:39.196Z</time>
      </trkpt>
      <trkpt lat="42.26005" lon="22.56888">
        <ele>1031.804652</ele>
        <time>2022-04-09T09:36:02.204Z</time>
      </trkpt>
      <trkpt lat="42.25974" lon="22.5656">
        <ele>1018.544119</ele>
        <time>2022-04-09T09:36:46.183Z</time>
      </trkpt>
      <trkpt lat="42.25921" lon="22.56154">
        <ele>1005.57347</ele>
        <time>2022-04-09T09:37:27.196Z</time>
      </trkpt>
      <trkpt lat="42.2586" lon="22.55862">
        <ele>997.964033</ele>
        <time>2022-04-09T09:37:53.175Z</time>
      </trkpt>
      <trkpt lat="42.25782" lon="22.55561">
        <ele>992.10857</ele>
        <time>2022-04-09T09:38:48.201Z</time>
      </trkpt>
      <trkpt lat="42.25709" lon="22.55284">
        <ele>995.510885</ele>
        <time>2022-04-09T09:39:48.202Z</time>
      </trkpt>
      <trkpt lat="42.25635" lon="22.54994">
        <ele>993.33176</ele>
        <time>2022-04-09T09:40:39.223Z</time>
      </trkpt>
      <trkpt lat="42.25563" lon="22.54735">
        <ele>988.362412</ele>
        <time>2022-04-09T09:41:19.199Z</time>
      </trkpt>
      <trkpt lat="42.2548" lon="22.54404">
        <ele>978.692239</ele>
        <time>2022-04-09T09:42:01.216Z</time>
      </trkpt>
      <trkpt lat="42.25405" lon="22.54123">
        <ele>971.623826</ele>
        <time>2022-04-09T09:42:41.200Z</time>
      </trkpt>
      <trkpt lat="42.25324" lon="22.53829">
        <ele>972.275745</ele>
        <time>2022-04-09T09:43:33.171Z</time>
      </trkpt>
      <trkpt lat="42.25238" lon="22.53567">
        <ele>978.766483</ele>
        <time>2022-04-09T09:45:01.181Z</time>
      </trkpt>
      <trkpt lat="42.2515" lon="22.53331">
        <ele>985.401187</ele>
        <time>2022-04-09T09:46:42.204Z</time>
      </trkpt>
      <trkpt lat="42.25058" lon="22.53084">
        <ele>996.437896</ele>
        <time>2022-04-09T09:48:31.201Z</time>
      </trkpt>
      <trkpt lat="42.24969" lon="22.52837">
        <ele>1005.96857</ele>
        <time>2022-04-09T09:50:22.179Z</time>
      </trkpt>
      <trkpt lat="42.24861" lon="22.52582">
        <ele>1006.751255</ele>
        <time>2022-04-09T09:51:50.191Z</time>
      </trkpt>
      <trkpt lat="42.24744" lon="22.52346">
        <ele>1005.044756</ele>
        <time>2022-04-09T09:53:04.173Z</time>
      </trkpt>
      <trkpt lat="42.24601" lon="22.52097">
        <ele>997.034105</ele>
        <time>2022-04-09T09:53:59.189Z</time>
      </trkpt>
      <trkpt lat="42.24437" lon="22.51808">
        <ele>989.006985</ele>
        <time>2022-04-09T09:54:39.186Z</time>
      </trkpt>
      <trkpt lat="42.2429" lon="22.51549">
        <ele>987.612635</ele>
        <time>2022-04-09T09:55:22.186Z</time>
      </trkpt>
      <trkpt lat="42.24169" lon="22.51333">
        <ele>994.317537</ele>
        <time>2022-04-09T09:56:59.177Z</time>
      </trkpt>
      <trkpt lat="42.24037" lon="22.51125">
        <ele>1004.112711</ele>
        <time>2022-04-09T09:59:07.179Z</time>
      </trkpt>
      <trkpt lat="42.23889" lon="22.50932">
        <ele>1012.035478</ele>
        <time>2022-04-09T10:01:17.200Z</time>
      </trkpt>
      <trkpt lat="42.23765" lon="22.50731">
        <ele>1018.387876</ele>
        <time>2022-04-09T10:03:13.176Z</time>
      </trkpt>
      <trkpt lat="42.23635" lon="22.50508">
        <ele>1026.67055</ele>
        <time>2022-04-09T10:05:16.197Z</time>
      </trkpt>
      <trkpt lat="42.23539" lon="22.50281">
        <ele>1035.623931</ele>
        <time>2022-04-09T10:07:24.189Z</time>
      </trkpt>
      <trkpt lat="42.23471" lon="22.50019">
        <ele>1044.969388</ele>
        <time>2022-04-09T10:09:33.185Z</time>
      </trkpt>
      <trkpt lat="42.234" lon="22.4976">
        <ele>1049.456862</ele>
        <time>2022-04-09T10:10:55.180Z</time>
      </trkpt>
      <trkpt lat="42.23323" lon="22.4948">
        <ele>1047.58543</ele>
        <time>2022-04-09T10:12:11.185Z</time>
      </trkpt>
      <trkpt lat="42.23236" lon="22.49222">
        <ele>1046.022401</ele>
        <time>2022-04-09T10:13:29.181Z</time>
      </trkpt>
      <trkpt lat="42.23144" lon="22.48979">
        <ele>1053.267471</ele>
        <time>2022-04-09T10:14:55.194Z</time>
      </trkpt>
      <trkpt lat="42.23048" lon="22.48726">
        <ele>1062.437965</ele>
        <time>2022-04-09T10:16:31.188Z</time>
      </trkpt>
      <trkpt lat="42.22932" lon="22.48518">
        <ele>1071.890296</ele>
        <time>2022-04-09T10:18:37.195Z</time>
      </trkpt>
      <trkpt lat="42.22772" lon="22.48343">
        <ele>1082.662515</ele>
        <time>2022-04-09T10:20:52.188Z</time>
      </trkpt>
      <trkpt lat="42.22615" lon="22.48182">
        <ele>1087.939222</ele>
        <time>2022-04-09T10:22:54.181Z</time>
      </trkpt>
      <trkpt lat="42.22445" lon="22.48013">
        <ele>1094.303516</ele>
        <time>2022-04-09T10:24:41.177Z</time>
      </trkpt>
      <trkpt lat="42.22329" lon="22.47796">
        <ele>1115.641478</ele>
        <time>2022-04-09T10:26:18.190Z</time>
      </trkpt>
      <trkpt lat="42.22328" lon="22.47518">
        <ele>1115.908551</ele>
        <time>2022-04-09T10:28:10.184Z</time>
      </trkpt>
      <trkpt lat="42.22162" lon="22.47382">
        <ele>1120.669056</ele>
        <time>2022-04-09T10:35:48.179Z</time>
      </trkpt>
      <trkpt lat="42.21971" lon="22.47278">
        <ele>1136.249653</ele>
        <time>2022-04-09T10:38:14.188Z</time>
      </trkpt>
      <trkpt lat="42.21793" lon="22.47182">
        <ele>1147.941729</ele>
        <time>2022-04-09T10:40:44.194Z</time>
      </trkpt>
      <trkpt lat="42.217" lon="22.46978">
        <ele>1161.531096</ele>
        <time>2022-04-09T10:43:17.187Z</time>
      </trkpt>
      <trkpt lat="42.21814" lon="22.46759">
        <ele>1174.53491</ele>
        <time>2022-04-09T10:45:56.207Z</time>
      </trkpt>
      <trkpt lat="42.21904" lon="22.46534">
        <ele>1190.659564</ele>
        <time>2022-04-09T10:48:33.187Z</time>
      </trkpt>
      <trkpt lat="42.21912" lon="22.46267">
        <ele>1202.753172</ele>
        <time>2022-04-09T10:51:35.183Z</time>
      </trkpt>
      <trkpt lat="42.21951" lon="22.45952">
        <ele>1206.088998</ele>
        <time>2022-04-09T10:59:02.164Z</time>
      </trkpt>
      <trkpt lat="42.2214" lon="22.45754">
        <ele>1202.918835</ele>
        <time>2022-04-09T11:21:49.199Z</time>
      </trkpt>
      <trkpt lat="42.21989" lon="22.45564">
        <ele>1192.16387</ele>
        <time>2022-04-09T11:22:31.183Z</time>
      </trkpt>
      <trkpt lat="42.21831" lon="22.45293">
        <ele>1174.786349</ele>
        <time>2022-04-09T11:23:13.185Z</time>
      </trkpt>
      <trkpt lat="42.21643" lon="22.4507">
        <ele>1153.320652</ele>
        <time>2022-04-09T11:23:56.208Z</time>
      </trkpt>
      <trkpt lat="42.21894" lon="22.44959">
        <ele>1134.738588</ele>
        <time>2022-04-09T11:24:32.202Z</time>
      </trkpt>
      <trkpt lat="42.21736" lon="22.44713">
        <ele>1117.334069</ele>
        <time>2022-04-09T11:24:59.207Z</time>
      </trkpt>
      <trkpt lat="42.21796" lon="22.44488">
        <ele>1100.633268</ele>
        <time>2022-04-09T11:25:19.200Z</time>
      </trkpt>
      <trkpt lat="42.21992" lon="22.44548">
        <ele>1084.933102</ele>
        <time>2022-04-09T11:25:43.196Z</time>
      </trkpt>
      <trkpt lat="42.22091" lon="22.4477">
        <ele>1075.36748</ele>
        <time>2022-04-09T11:26:04.193Z</time>
      </trkpt>
      <trkpt lat="42.22287" lon="22.44637">
        <ele>1056.498501</ele>
        <time>2022-04-09T11:26:47.198Z</time>
      </trkpt>
      <trkpt lat="42.22178" lon="22.44253">
        <ele>1034.238556</ele>
        <time>2022-04-09T11:27:27.187Z</time>
      </trkpt>
      <trkpt lat="42.21945" lon="22.43939">
        <ele>1008.880944</ele>
        <time>2022-04-09T11:28:05.226Z</time>
      </trkpt>
      <trkpt lat="42.21812" lon="22.43686">
        <ele>985.410991</ele>
        <time>2022-04-09T11:28:36.252Z</time>
      </trkpt>
      <trkpt lat="42.21955" lon="22.43391">
        <ele>966.833976</ele>
        <time>2022-04-09T11:29:05.183Z</time>
      </trkpt>
      <trkpt lat="42.22118" lon="22.43242">
        <ele>949.779664</ele>
        <time>2022-04-09T11:29:38.193Z</time>
      </trkpt>
      <trkpt lat="42.22126" lon="22.42844">
        <ele>925.144497</ele>
        <time>2022-04-09T11:30:18.204Z</time>
      </trkpt>
      <trkpt lat="42.22322" lon="22.42691">
        <ele>905.94674</ele>
        <time>2022-04-09T11:30:46.224Z</time>
      </trkpt>
      <trkpt lat="42.22265" lon="22.42427">
        <ele>884.293821</ele>
        <time>2022-04-09T11:31:22.196Z</time>
      </trkpt>
      <trkpt lat="42.22376" lon="22.42123">
        <ele>866.134467</ele>
        <time>2022-04-09T11:32:06.200Z</time>
      </trkpt>
      <trkpt lat="42.22468" lon="22.41843">
        <ele>857.989715</ele>
        <time>2022-04-09T11:32:48.194Z</time>
      </trkpt>
      <trkpt lat="42.22478" lon="22.41542">
        <ele>856.171992</ele>
        <time>2022-04-09T11:33:36.190Z</time>
      </trkpt>
      <trkpt lat="42.2257" lon="22.41289">
        <ele>850.903697</ele>
        <time>2022-04-09T11:34:34.188Z</time>
      </trkpt>
      <trkpt lat="42.22585" lon="22.40988">
        <ele>846.806148</ele>
        <time>2022-04-09T11:35:32.187Z</time>
      </trkpt>
      <trkpt lat="42.22541" lon="22.40703">
        <ele>837.952027</ele>
        <time>2022-04-09T11:36:12.209Z</time>
      </trkpt>
      <trkpt lat="42.22532" lon="22.40405">
        <ele>832.657981</ele>
        <time>2022-04-09T11:36:57.190Z</time>
      </trkpt>
      <trkpt lat="42.22503" lon="22.40115">
        <ele>831.936763</ele>
        <time>2022-04-09T11:37:53.227Z</time>
      </trkpt>
      <trkpt lat="42.22391" lon="22.3984">
        <ele>826.212162</ele>
        <time>2022-04-09T11:39:03.194Z</time>
      </trkpt>
      <trkpt lat="42.22335" lon="22.39515">
        <ele>816.645313</ele>
        <time>2022-04-09T11:39:46.195Z</time>
      </trkpt>
      <trkpt lat="42.22444" lon="22.39242">
        <ele>818.295885</ele>
        <time>2022-04-09T11:40:45.199Z</time>
      </trkpt>
      <trkpt lat="42.22541" lon="22.38932">
        <ele>813.142945</ele>
        <time>2022-04-09T11:41:30.205Z</time>
      </trkpt>
      <trkpt lat="42.22666" lon="22.3859">
        <ele>805.367115</ele>
        <time>2022-04-09T11:42:10.203Z</time>
      </trkpt>
      <trkpt lat="42.22755" lon="22.38315">
        <ele>803.683002</ele>
        <time>2022-04-09T11:42:57.197Z</time>
      </trkpt>
      <trkpt lat="42.22877" lon="22.38076">
        <ele>794.593348</ele>
        <time>2022-04-09T11:43:44.187Z</time>
      </trkpt>
      <trkpt lat="42.22918" lon="22.37782">
        <ele>786.754611</ele>
        <time>2022-04-09T11:44:37.184Z</time>
      </trkpt>
      <trkpt lat="42.22927" lon="22.37508">
        <ele>774.950943</ele>
        <time>2022-04-09T11:45:21.184Z</time>
      </trkpt>
      <trkpt lat="42.23028" lon="22.37224">
        <ele>766.731751</ele>
        <time>2022-04-09T11:46:01.192Z</time>
      </trkpt>
      <trkpt lat="42.23063" lon="22.36922">
        <ele>764.669345</ele>
        <time>2022-04-09T11:46:43.219Z</time>
      </trkpt>
      <trkpt lat="42.23028" lon="22.36649">
        <ele>764.272889</ele>
        <time>2022-04-09T11:47:34.192Z</time>
      </trkpt>
      <trkpt lat="42.23064" lon="22.3637">
        <ele>763.075212</ele>
        <time>2022-04-09T11:48:16.181Z</time>
      </trkpt>
      <trkpt lat="42.22939" lon="22.36131">
        <ele>744.861355</ele>
        <time>2022-04-09T11:48:58.188Z</time>
      </trkpt>
      <trkpt lat="42.22731" lon="22.35958">
        <ele>736.579417</ele>
        <time>2022-04-09T11:49:48.203Z</time>
      </trkpt>
      <trkpt lat="42.22532" lon="22.35896">
        <ele>728.625972</ele>
        <time>2022-04-09T11:50:32.186Z</time>
      </trkpt>
      <trkpt lat="42.22342" lon="22.35915">
        <ele>733.537144</ele>
        <time>2022-04-09T11:51:16.199Z</time>
      </trkpt>
      <trkpt lat="42.22268" lon="22.35594">
        <ele>741.054774</ele>
        <time>2022-04-09T11:51:56.184Z</time>
      </trkpt>
      <trkpt lat="42.22024" lon="22.35551">
        <ele>722.115719</ele>
        <time>2022-04-09T11:52:38.175Z</time>
      </trkpt>
      <trkpt lat="42.21844" lon="22.35362">
        <ele>723.59082</ele>
        <time>2022-04-09T11:53:28.184Z</time>
      </trkpt>
      <trkpt lat="42.21729" lon="22.35146">
        <ele>725.407635</ele>
        <time>2022-04-09T11:54:08.174Z</time>
      </trkpt>
      <trkpt lat="42.21534" lon="22.34949">
        <ele>714.179196</ele>
        <time>2022-04-09T11:54:52.217Z</time>
      </trkpt>
      <trkpt lat="42.21419" lon="22.34747">
        <ele>726.565033</ele>
        <time>2022-04-09T11:55:56.238Z</time>
      </trkpt>
      <trkpt lat="42.21228" lon="22.34595">
        <ele>710.616326</ele>
        <time>2022-04-09T11:56:47.206Z</time>
      </trkpt>
      <trkpt lat="42.2109" lon="22.3439">
        <ele>704.483085</ele>
        <time>2022-04-09T11:57:50.197Z</time>
      </trkpt>
      <trkpt lat="42.21092" lon="22.34256">
        <ele>701.228026</ele>
        <time>2022-04-09T11:58:38.212Z</time>
      </trkpt>
      <trkpt lat="42.20989" lon="22.34064">
        <ele>695.796929</ele>
        <time>2022-04-09T11:59:42.177Z</time>
      </trkpt>
      <trkpt lat="42.2084" lon="22.33859">
        <ele>692.388078</ele>
        <time>2022-04-09T12:00:28.185Z</time>
      </trkpt>
      <trkpt lat="42.20754" lon="22.33584">
        <ele>689.939917</ele>
        <time>2022-04-09T12:01:14.187Z</time>
      </trkpt>
      <trkpt lat="42.20596" lon="22.33405">
        <ele>684.450605</ele>
        <time>2022-04-09T12:01:59.187Z</time>
      </trkpt>
      <trkpt lat="42.20403" lon="22.33321">
        <ele>681.401543</ele>
        <time>2022-04-09T12:02:41.182Z</time>
      </trkpt>
      <trkpt lat="42.20201" lon="22.33379">
        <ele>684.075253</ele>
        <time>2022-04-09T12:03:36.215Z</time>
      </trkpt>
      <trkpt lat="42.20195" lon="22.33372">
        <ele>689.937212</ele>
        <time>2022-04-09T12:05:08.206Z</time>
      </trkpt>
      <trkpt lat="42.20138" lon="22.33442">
        <ele>689.937212</ele>
        <time>2022-04-09T12:08:03.013Z</time>
      </trkpt>
    </trkseg>
  </trk>
</gpx>